Time;durP1;ratioP1;P1;durP2;ratioP2;P2;SDS_P1;SDS_P2;PMS_P1;PMS_P2;Temp;Humidity;BMP_temperature;BMP_pressure;BME280_temperature;BME280_humidity;BME280_pressure;Samples;Min_cycle;Max_cycle;Signal;HPM_P1;HPM_P2
2022/10/28 00:01:03;;;;;;;12.55;5.05;;;;;;;;;;4877209;29;20056;-65
2022/10/28 00:03:30;;;;;;;10.65;5.53;;;;;;;;;;4876343;29;20052;-65
2022/10/28 00:06:08;;;;;;;16.27;5.45;;;;;;;;;;4878395;29;20249;-65
2022/10/28 00:08:34;;;;;;;12.27;5.13;;;;;;;;;;4878559;29;20090;-65
2022/10/28 00:11:05;;;;;;;11.75;5.97;;;;;;;;;;4877175;29;20037;-65
2022/10/28 00:13:31;;;;;;;11.15;5.32;;;;;;;;;;4876616;29;20093;-64
2022/10/28 00:16:11;;;;;;;9.48;5.07;;;;;;;;;;4877144;29;20116;-62
2022/10/28 00:18:38;;;;;;;9.73;5.53;;;;;;;;;;4878922;29;20445;-63
2022/10/28 00:21:12;;;;;;;11.48;4.95;;;;;;;;;;4878342;29;20045;-63
2022/10/28 00:23:38;;;;;;;11.40;5.20;;;;;;;;;;4877887;29;20065;-64
2022/10/28 00:26:08;;;;;;;13.45;5.20;;;;;;;;;;4877618;29;20049;-63
2022/10/28 00:28:38;;;;;;;11.95;4.97;;;;;;;;;;4862176;29;20192;-63
2022/10/28 00:31:06;;;;;;;12.30;5.65;;;;;;;;;;4878170;29;20048;-63
2022/10/28 00:33:32;;;;;;;10.15;5.20;;;;;;;;;;4876429;29;20106;-63
2022/10/28 00:36:08;;;;;;;8.70;5.40;;;;;;;;;;4878219;29;20053;-63
2022/10/28 00:38:34;;;;;;;8.90;4.80;;;;;;;;;;4878681;29;20105;-63
2022/10/28 00:41:01;;;;;;;11.23;5.82;;;;;;;;;;4881796;29;20049;-62
2022/10/28 00:43:47;;;;;;;13.15;5.63;;;;;;;;;;4880121;29;20045;-62
2022/10/28 00:46:16;;;;;;;13.43;5.90;;;;;;;;;;4881726;29;20044;-62
2022/10/28 00:48:44;;;;;;;9.90;5.68;;;;;;;;;;4865133;29;20053;-63
2022/10/28 00:51:11;;;;;;;12.57;5.78;;;;;;;;;;4880543;29;20067;-63
2022/10/28 00:53:38;;;;;;;16.38;6.55;;;;;;;;;;4881244;29;20045;-64
2022/10/28 00:56:05;;;;;;;13.27;5.15;;;;;;;;;;4881601;29;20037;-64
2022/10/28 00:58:32;;;;;;;11.35;5.20;;;;;;;;;;4881866;29;20078;-64
2022/10/28 01:00:58;;;;;;;10.00;4.82;;;;;;;;;;4880738;29;20064;-64
2022/10/28 01:03:25;;;;;;;9.05;4.82;;;;;;;;;;4881173;29;20503;-64
2022/10/28 01:05:51;;;;;;;9.93;4.95;;;;;;;;;;4880260;29;20057;-64
2022/10/28 01:08:18;;;;;;;10.90;5.10;;;;;;;;;;4880206;29;20044;-63
2022/10/28 01:11:00;;;;;;;10.15;5.20;;;;;;;;;;4881455;29;20045;-63
2022/10/28 01:13:38;;;;;;;18.02;5.88;;;;;;;;;;4880950;29;20502;-63
2022/10/28 01:16:23;;;;;;;10.70;4.70;;;;;;;;;;4864653;29;20048;-63
2022/10/28 01:19:15;;;;;;;11.13;4.90;;;;;;;;;;4880412;29;20053;-63
2022/10/28 01:21:51;;;;;;;9.90;4.95;;;;;;;;;;4879302;29;20064;-63
2022/10/28 01:24:17;;;;;;;10.38;5.88;;;;;;;;;;4879806;29;20087;-63
2022/10/28 01:26:44;;;;;;;10.55;4.90;;;;;;;;;;4879756;29;20053;-63
2022/10/28 01:29:13;;;;;;;10.15;4.57;;;;;;;;;;4880016;29;20195;-63
2022/10/28 01:31:46;;;;;;;10.50;4.82;;;;;;;;;;4880394;29;20093;-63
2022/10/28 01:34:12;;;;;;;9.52;4.95;;;;;;;;;;4879802;29;20495;-63
2022/10/28 01:36:51;;;;;;;10.73;5.35;;;;;;;;;;4879757;29;20045;-63
2022/10/28 01:39:23;;;;;;;8.40;4.85;;;;;;;;;;4881047;29;20052;-63
2022/10/28 01:42:01;;;;;;;16.20;5.68;;;;;;;;;;4880223;29;20567;-63
2022/10/28 01:44:46;;;;;;;8.57;5.25;;;;;;;;;;4879609;29;20105;-63
2022/10/28 01:47:16;;;;;;;9.68;4.75;;;;;;;;;;4880804;29;20051;-63
2022/10/28 01:49:48;;;;;;;11.40;5.18;;;;;;;;;;4863649;29;20053;-63
2022/10/28 01:52:17;;;;;;;15.93;5.00;;;;;;;;;;4863449;29;20089;-63
2022/10/28 01:54:46;;;;;;;11.00;5.03;;;;;;;;;;4879174;29;20163;-63
2022/10/28 01:57:13;;;;;;;11.93;5.38;;;;;;;;;;4880775;29;20056;-63
2022/10/28 01:59:40;;;;;;;8.30;4.80;;;;;;;;;;4863996;29;20057;-63
2022/10/28 02:02:07;;;;;;;11.25;5.15;;;;;;;;;;4878273;29;20059;-63
2022/10/28 02:04:33;;;;;;;11.88;5.00;;;;;;;;;;4880294;29;20060;-63
2022/10/28 02:07:00;;;;;;;12.93;5.68;;;;;;;;;;4879284;29;20053;-63
2022/10/28 02:09:26;;;;;;;10.68;4.43;;;;;;;;;;4880320;29;20037;-63
2022/10/28 02:12:00;;;;;;;11.13;4.78;;;;;;;;;;4879686;29;20053;-63
2022/10/28 02:14:42;;;;;;;8.65;5.20;;;;;;;;;;4879072;29;20124;-63
2022/10/28 02:17:12;;;;;;;9.82;4.45;;;;;;;;;;4879280;29;20049;-64
2022/10/28 02:19:58;;;;;;;9.25;4.35;;;;;;;;;;4878819;29;20113;-63
2022/10/28 02:22:45;;;;;;;9.90;4.95;;;;;;;;;;4869028;29;20506;-63
2022/10/28 02:25:41;;;;;;;7.43;4.20;;;;;;;;;;4878600;29;20053;-63
2022/10/28 02:28:14;;;;;;;9.25;4.55;;;;;;;;;;4861597;29;20113;-61
2022/10/28 02:30:46;;;;;;;11.45;4.82;;;;;;;;;;4878766;29;20467;-61
2022/10/28 02:33:33;;;;;;;13.30;4.60;;;;;;;;;;4862701;29;20113;-62
2022/10/28 02:36:10;;;;;;;6.85;4.10;;;;;;;;;;4878676;29;20064;-61
2022/10/28 02:38:50;;;;;;;12.45;4.60;;;;;;;;;;4878825;29;20053;-63
2022/10/28 02:41:16;;;;;;;11.63;5.13;;;;;;;;;;4863219;29;20052;-62
2022/10/28 02:43:44;;;;;;;8.75;4.28;;;;;;;;;;4878337;29;20327;-62
2022/10/28 02:46:12;;;;;;;13.35;5.18;;;;;;;;;;4880594;29;20045;-62
2022/10/28 02:48:49;;;;;;;11.05;4.47;;;;;;;;;;4879037;29;20053;-61
2022/10/28 02:51:18;;;;;;;11.73;4.15;;;;;;;;;;4879724;29;20097;-65
2022/10/28 02:54:03;;;;;;;11.50;4.07;;;;;;;;;;4879287;29;20101;-61
2022/10/28 02:56:31;;;;;;;16.67;5.68;;;;;;;;;;4879598;29;20212;-62
2022/10/28 02:58:58;;;;;;;8.85;4.38;;;;;;;;;;4879415;29;20048;-62
2022/10/28 03:01:24;;;;;;;13.18;4.55;;;;;;;;;;4878609;29;20057;-63
2022/10/28 03:03:51;;;;;;;11.77;4.28;;;;;;;;;;4878874;29;20049;-62
2022/10/28 03:06:17;;;;;;;10.00;4.28;;;;;;;;;;4878114;29;20414;-61
2022/10/28 03:08:44;;;;;;;9.48;4.70;;;;;;;;;;4879343;29;20101;-64
2022/10/28 03:11:10;;;;;;;8.93;4.07;;;;;;;;;;4879279;29;20045;-63
2022/10/28 03:13:36;;;;;;;10.00;4.68;;;;;;;;;;4878772;29;20097;-63
2022/10/28 03:16:03;;;;;;;11.68;4.70;;;;;;;;;;4879204;29;20494;-62
2022/10/28 03:18:29;;;;;;;7.60;4.40;;;;;;;;;;4879173;29;20069;-62
2022/10/28 03:20:56;;;;;;;10.57;5.25;;;;;;;;;;4879190;29;20057;-62
2022/10/28 03:23:24;;;;;;;10.95;4.85;;;;;;;;;;4878407;29;20087;-63
2022/10/28 03:25:50;;;;;;;12.07;3.90;;;;;;;;;;4879055;29;20041;-62
2022/10/28 03:28:17;;;;;;;8.68;4.55;;;;;;;;;;4877735;29;20041;-62
2022/10/28 03:30:43;;;;;;;9.57;4.38;;;;;;;;;;4879084;29;20301;-62
2022/10/28 03:33:10;;;;;;;6.93;4.05;;;;;;;;;;4878369;29;20049;-62
2022/10/28 03:35:36;;;;;;;7.28;4.47;;;;;;;;;;4877602;29;20077;-60
2022/10/28 03:38:02;;;;;;;9.30;4.38;;;;;;;;;;4878654;29;20073;-60
2022/10/28 03:40:29;;;;;;;17.90;5.80;;;;;;;;;;4878920;29;20060;-62
2022/10/28 03:42:55;;;;;;;13.13;4.65;;;;;;;;;;4878062;29;20048;-61
2022/10/28 03:45:22;;;;;;;11.10;4.07;;;;;;;;;;4878644;29;20076;-62
2022/10/28 03:47:48;;;;;;;11.32;5.35;;;;;;;;;;4878973;29;20197;-61
2022/10/28 03:50:15;;;;;;;10.23;4.72;;;;;;;;;;4878799;29;20045;-61
2022/10/28 03:52:42;;;;;;;9.13;4.35;;;;;;;;;;4877865;29;20502;-63
2022/10/28 03:55:09;;;;;;;9.35;4.95;;;;;;;;;;4879538;29;20048;-62
2022/10/28 03:57:35;;;;;;;10.82;4.40;;;;;;;;;;4878555;29;20088;-63
2022/10/28 04:00:02;;;;;;;16.58;4.70;;;;;;;;;;4877483;29;20074;-61
2022/10/28 04:02:52;;;;;;;11.57;5.60;;;;;;;;;;5184514;23;20065;-62
2022/10/28 04:05:19;;;;;;;13.05;4.80;;;;;;;;;;4877194;29;20109;-62
2022/10/28 04:07:45;;;;;;;8.75;5.00;;;;;;;;;;4878470;29;20406;-61
2022/10/28 04:10:12;;;;;;;11.50;4.70;;;;;;;;;;4878301;29;20554;-62
2022/10/28 04:12:39;;;;;;;12.18;5.00;;;;;;;;;;4876529;29;20045;-62
2022/10/28 04:15:06;;;;;;;8.57;4.50;;;;;;;;;;4878855;29;20036;-63
2022/10/28 04:17:33;;;;;;;8.60;4.22;;;;;;;;;;4878189;29;20052;-61
2022/10/28 04:19:59;;;;;;;11.35;4.80;;;;;;;;;;4878177;29;20041;-61
2022/10/28 04:22:25;;;;;;;17.23;5.57;;;;;;;;;;4876422;29;20522;-61
2022/10/28 04:24:53;;;;;;;9.95;5.60;;;;;;;;;;4878382;29;20125;-61
2022/10/28 04:27:20;;;;;;;16.90;6.95;;;;;;;;;;4877056;29;20049;-61
2022/10/28 04:29:46;;;;;;;11.57;5.32;;;;;;;;;;4878079;29;20079;-62
2022/10/28 04:32:13;;;;;;;9.73;5.22;;;;;;;;;;4877421;29;20045;-62
2022/10/28 04:34:39;;;;;;;11.75;5.45;;;;;;;;;;4878362;29;20053;-62
2022/10/28 04:37:05;;;;;;;10.00;4.75;;;;;;;;;;4878285;29;20049;-63
2022/10/28 04:39:32;;;;;;;10.68;5.40;;;;;;;;;;4877996;29;20494;-63
2022/10/28 04:41:58;;;;;;;10.07;4.55;;;;;;;;;;4876237;29;20069;-63
2022/10/28 04:44:24;;;;;;;11.93;5.10;;;;;;;;;;4878010;29;20565;-62
2022/10/28 04:46:51;;;;;;;13.63;5.43;;;;;;;;;;4877884;29;20045;-62
2022/10/28 04:49:17;;;;;;;8.38;4.90;;;;;;;;;;4877771;29;20109;-63
2022/10/28 04:51:43;;;;;;;14.00;5.97;;;;;;;;;;4876028;29;20104;-62
2022/10/28 04:54:15;;;;;;;9.50;5.50;;;;;;;;;;4877911;29;20049;-62
2022/10/28 04:56:41;;;;;;;14.65;5.57;;;;;;;;;;4876590;29;20045;-62
2022/10/28 04:59:07;;;;;;;14.48;5.63;;;;;;;;;;4877935;29;20048;-62
2022/10/28 05:01:34;;;;;;;9.73;6.00;;;;;;;;;;4877403;29;20044;-63
2022/10/28 05:04:01;;;;;;;14.80;6.60;;;;;;;;;;4877596;29;20049;-62
2022/10/28 05:06:27;;;;;;;10.68;6.72;;;;;;;;;;4876515;29;20416;-62
2022/10/28 05:08:54;;;;;;;15.60;5.88;;;;;;;;;;4877745;29;20041;-62
2022/10/28 05:11:20;;;;;;;14.30;5.63;;;;;;;;;;4877588;29;20053;-62
2022/10/28 05:13:47;;;;;;;11.00;5.22;;;;;;;;;;4876301;29;20101;-63
2022/10/28 05:16:13;;;;;;;9.30;5.25;;;;;;;;;;4877838;29;20534;-64
2022/10/28 05:18:39;;;;;;;10.20;4.70;;;;;;;;;;4877799;29;20104;-62
2022/10/28 05:21:06;;;;;;;12.55;5.65;;;;;;;;;;4877746;29;20041;-64
2022/10/28 05:23:32;;;;;;;11.80;5.00;;;;;;;;;;4877144;29;20494;-62
2022/10/28 05:25:59;;;;;;;12.90;7.28;;;;;;;;;;4880916;29;20049;-63
2022/10/28 05:28:25;;;;;;;13.32;5.20;;;;;;;;;;4881086;29;20455;-64
2022/10/28 05:30:51;;;;;;;13.15;5.28;;;;;;;;;;4880861;29;20049;-63
2022/10/28 05:33:18;;;;;;;11.32;4.90;;;;;;;;;;4880333;29;20558;-64
2022/10/28 05:35:44;;;;;;;16.63;6.55;;;;;;;;;;4879788;29;20462;-64
2022/10/28 05:38:11;;;;;;;17.13;5.32;;;;;;;;;;4880929;29;20490;-64
2022/10/28 05:40:37;;;;;;;9.52;4.88;;;;;;;;;;4880893;29;20524;-61
2022/10/28 05:43:04;;;;;;;13.32;5.72;;;;;;;;;;4880176;29;20498;-61
2022/10/28 05:45:30;;;;;;;11.32;4.75;;;;;;;;;;4879626;29;20148;-61
2022/10/28 05:47:56;;;;;;;15.02;5.03;;;;;;;;;;4882027;29;20049;-62
2022/10/28 05:50:23;;;;;;;10.75;4.85;;;;;;;;;;4880625;29;20471;-62
2022/10/28 05:52:50;;;;;;;15.65;5.53;;;;;;;;;;4880968;29;20101;-61
2022/10/28 05:55:20;;;;;;;16.10;6.45;;;;;;;;;;4881809;29;20513;-62
2022/10/28 05:57:47;;;;;;;10.65;5.80;;;;;;;;;;4881971;29;20049;-63
2022/10/28 06:00:14;;;;;;;11.65;5.40;;;;;;;;;;4881252;29;20104;-62
2022/10/28 06:02:41;;;;;;;9.05;4.95;;;;;;;;;;4880280;29;20057;-62
2022/10/28 06:05:08;;;;;;;15.63;6.43;;;;;;;;;;4880968;29;20048;-61
2022/10/28 06:07:35;;;;;;;13.63;5.75;;;;;;;;;;4880363;29;20048;-62
2022/10/28 06:10:02;;;;;;;10.10;5.88;;;;;;;;;;4879144;29;20494;-62
2022/10/28 06:12:29;;;;;;;11.95;6.65;;;;;;;;;;4879889;29;20061;-62
2022/10/28 06:14:55;;;;;;;13.90;5.90;;;;;;;;;;4880838;29;20540;-62
2022/10/28 06:17:22;;;;;;;10.80;5.57;;;;;;;;;;4863817;29;20060;-61
2022/10/28 06:19:48;;;;;;;11.35;5.78;;;;;;;;;;4879037;29;20053;-62
2022/10/28 06:22:15;;;;;;;11.98;5.60;;;;;;;;;;4879674;29;20105;-63
2022/10/28 06:24:41;;;;;;;14.32;5.28;;;;;;;;;;4878890;29;20080;-63
2022/10/28 06:27:08;;;;;;;10.30;5.50;;;;;;;;;;4879938;29;20097;-61
2022/10/28 06:29:35;;;;;;;11.50;6.10;;;;;;;;;;4880621;29;20064;-61
2022/10/28 06:32:01;;;;;;;17.20;6.65;;;;;;;;;;4879249;29;20056;-61
2022/10/28 06:34:27;;;;;;;8.15;5.63;;;;;;;;;;4879889;29;20543;-62
2022/10/28 06:36:54;;;;;;;14.65;6.15;;;;;;;;;;4878648;29;20472;-61
2022/10/28 06:39:20;;;;;;;21.20;6.65;;;;;;;;;;4879704;29;20105;-61
2022/10/28 06:41:46;;;;;;;20.33;7.28;;;;;;;;;;4879058;29;20037;-62
2022/10/28 06:44:13;;;;;;;16.10;6.72;;;;;;;;;;4878521;29;20053;-61
2022/10/28 06:46:39;;;;;;;12.73;6.75;;;;;;;;;;4878260;29;20075;-61
2022/10/28 06:49:07;;;;;;;14.82;6.10;;;;;;;;;;4879657;29;20537;-60
2022/10/28 06:51:34;;;;;;;18.75;5.85;;;;;;;;;;4879241;29;20045;-65
2022/10/28 06:54:00;;;;;;;12.57;5.75;;;;;;;;;;4878943;29;20075;-61
2022/10/28 06:56:26;;;;;;;14.30;6.20;;;;;;;;;;4879406;29;20045;-62
2022/10/28 06:58:53;;;;;;;14.80;6.72;;;;;;;;;;4878558;29;20052;-63
2022/10/28 07:01:20;;;;;;;9.35;5.47;;;;;;;;;;4878012;29;20052;-61
2022/10/28 07:03:47;;;;;;;11.25;6.00;;;;;;;;;;4879068;29;20072;-61
2022/10/28 07:06:14;;;;;;;11.57;6.00;;;;;;;;;;4878006;29;20049;-61
2022/10/28 07:08:41;;;;;;;13.40;5.85;;;;;;;;;;4862915;29;20494;-62
2022/10/28 07:11:07;;;;;;;9.90;5.35;;;;;;;;;;4877933;29;20037;-62
2022/10/28 07:13:33;;;;;;;12.43;5.70;;;;;;;;;;4878708;29;20475;-62
2022/10/28 07:16:00;;;;;;;14.60;5.85;;;;;;;;;;4879642;29;20494;-62
2022/10/28 07:18:27;;;;;;;15.23;6.05;;;;;;;;;;4879432;29;20041;-64
2022/10/28 07:20:56;;;;;;;12.00;5.80;;;;;;;;;;4878071;29;20414;-63
2022/10/28 07:23:23;;;;;;;13.63;5.75;;;;;;;;;;4877678;29;20457;-63
2022/10/28 07:25:53;;;;;;;9.88;5.70;;;;;;;;;;4877640;29;20073;-61
2022/10/28 07:28:20;;;;;;;17.05;6.80;;;;;;;;;;4879024;29;20049;-61
2022/10/28 07:30:47;;;;;;;23.05;7.40;;;;;;;;;;4879047;29;20041;-63
2022/10/28 07:33:13;;;;;;;20.75;7.35;;;;;;;;;;4877039;29;20105;-61
2022/10/28 07:35:41;;;;;;;12.10;6.30;;;;;;;;;;4877709;29;20057;-61
2022/10/28 07:38:08;;;;;;;17.33;7.75;;;;;;;;;;4878817;29;20101;-63
2022/10/28 07:40:34;;;;;;;15.95;6.72;;;;;;;;;;4879300;29;20049;-62
2022/10/28 07:43:00;;;;;;;14.65;7.25;;;;;;;;;;4877658;29;20081;-62
2022/10/28 07:45:27;;;;;;;18.35;7.07;;;;;;;;;;4878444;29;20057;-62
2022/10/28 07:47:53;;;;;;;15.10;6.45;;;;;;;;;;4880246;29;20056;-62
2022/10/28 07:50:20;;;;;;;16.73;6.90;;;;;;;;;;4880292;29;20386;-62
2022/10/28 07:52:46;;;;;;;20.83;6.40;;;;;;;;;;4882525;29;20045;-62
2022/10/28 07:55:12;;;;;;;12.40;6.18;;;;;;;;;;4884123;29;20482;-62
2022/10/28 07:57:39;;;;;;;22.38;6.38;;;;;;;;;;4883113;29;20123;-62
2022/10/28 08:00:06;;;;;;;37.35;14.13;;;;;;;;;;4881822;29;20049;-62
2022/10/28 08:02:38;;;;;;;19.40;9.63;;;;;;;;;;4881502;29;20064;-64
2022/10/28 08:05:05;;;;;;;14.18;7.40;;;;;;;;;;4882965;29;20078;-63
2022/10/28 08:07:31;;;;;;;65.93;20.40;;;;;;;;;;4880979;29;20047;-61
2022/10/28 08:10:03;;;;;;;29.65;16.30;;;;;;;;;;4878683;29;20093;-61
2022/10/28 08:12:35;;;;;;;28.70;18.10;;;;;;;;;;4876796;29;20129;-63
2022/10/28 08:15:02;;;;;;;56.03;24.08;;;;;;;;;;4878501;29;20406;-61
2022/10/28 08:17:29;;;;;;;27.15;13.73;;;;;;;;;;4878440;29;20076;-62
2022/10/28 08:19:55;;;;;;;28.50;14.57;;;;;;;;;;4877254;29;20077;-63
2022/10/28 08:22:22;;;;;;;36.53;16.45;;;;;;;;;;4877845;29;20045;-61
2022/10/28 08:24:48;;;;;;;25.67;13.18;;;;;;;;;;4878442;29;20053;-63
2022/10/28 08:27:14;;;;;;;21.60;11.90;;;;;;;;;;4877244;29;20077;-63
2022/10/28 08:29:41;;;;;;;20.95;10.02;;;;;;;;;;4877324;29;20057;-63
2022/10/28 08:32:08;;;;;;;30.60;11.43;;;;;;;;;;4877571;29;20045;-61
2022/10/28 08:34:34;;;;;;;16.08;8.73;;;;;;;;;;4878390;29;20128;-60
2022/10/28 08:37:06;;;;;;;12.55;7.57;;;;;;;;;;4878407;29;20053;-61
2022/10/28 08:39:32;;;;;;;24.00;10.75;;;;;;;;;;4878228;29;20041;-63
2022/10/28 08:42:21;;;;;;;22.42;10.45;;;;;;;;;;4877788;29;20045;-61
2022/10/28 08:44:53;;;;;;;24.38;10.65;;;;;;;;;;4876877;29;20064;-62
2022/10/28 08:47:28;;;;;;;12.13;6.72;;;;;;;;;;4878109;29;20526;-63
2022/10/28 08:49:56;;;;;;;13.82;7.53;;;;;;;;;;4878243;29;20037;-62
2022/10/28 08:52:36;;;;;;;17.38;7.20;;;;;;;;;;4876354;29;20053;-62
2022/10/28 08:55:05;;;;;;;13.00;6.50;;;;;;;;;;4878138;29;20120;-62
2022/10/28 08:57:43;;;;;;;16.58;7.35;;;;;;;;;;4877028;29;20045;-63
2022/10/28 09:00:18;;;;;;;14.00;6.70;;;;;;;;;;4879567;29;20049;-63
2022/10/28 09:02:52;;;;;;;15.82;6.40;;;;;;;;;;4879785;29;20525;-67
2022/10/28 09:05:21;;;;;;;16.65;7.95;;;;;;;;;;4881627;29;20069;-64
2022/10/28 09:07:47;;;;;;;15.48;7.07;;;;;;;;;;4881506;29;20048;-66
2022/10/28 09:10:14;;;;;;;14.80;6.45;;;;;;;;;;4880226;29;20041;-63
2022/10/28 09:12:56;;;;;;;13.90;6.32;;;;;;;;;;4879764;29;20097;-64
2022/10/28 09:15:25;;;;;;;14.05;4.50;;;;;;;;;;4881526;29;20045;-62
2022/10/28 09:17:56;;;;;;;13.25;4.80;;;;;;;;;;4881446;29;20101;-63
2022/10/28 09:20:41;;;;;;;12.20;5.00;;;;;;;;;;4881332;29;20056;-64
2022/10/28 09:23:28;;;;;;;15.45;4.00;;;;;;;;;;4880781;29;20041;-65
2022/10/28 09:26:01;;;;;;;10.40;4.28;;;;;;;;;;4880150;29;20057;-64
2022/10/28 09:28:46;;;;;;;11.82;4.00;;;;;;;;;;4881188;29;20105;-65
2022/10/28 09:31:15;;;;;;;12.25;3.70;;;;;;;;;;4879869;29;20045;-63
2022/10/28 09:33:45;;;;;;;11.77;3.75;;;;;;;;;;4880970;29;20427;-64
2022/10/28 09:36:15;;;;;;;10.95;3.58;;;;;;;;;;4881130;29;20045;-64
2022/10/28 09:38:43;;;;;;;9.65;3.90;;;;;;;;;;4880958;29;20041;-65
2022/10/28 09:41:13;;;;;;;11.65;3.05;;;;;;;;;;4879897;29;20053;-64
2022/10/28 09:43:51;;;;;;;7.85;3.08;;;;;;;;;;4880795;29;20108;-64
2022/10/28 09:46:18;;;;;;;14.07;3.55;;;;;;;;;;4879738;29;20048;-65
2022/10/28 09:48:54;;;;;;;12.18;3.28;;;;;;;;;;4881089;29;20105;-63
2022/10/28 09:51:42;;;;;;;9.55;4.47;;;;;;;;;;4880874;29;20049;-65
2022/10/28 09:54:09;;;;;;;15.18;3.53;;;;;;;;;;4880371;29;20057;-65
2022/10/28 09:56:36;;;;;;;12.75;3.00;;;;;;;;;;4881183;29;20498;-63
2022/10/28 09:59:03;;;;;;;9.48;3.90;;;;;;;;;;4881202;29;20501;-65
2022/10/28 10:01:33;;;;;;;16.83;4.90;;;;;;;;;;4879499;29;20086;-61
2022/10/28 10:04:14;;;;;;;9.75;3.53;;;;;;;;;;4880776;29;20514;-66
2022/10/28 10:06:41;;;;;;;11.77;3.22;;;;;;;;;;4880527;29;20048;-65
2022/10/28 10:09:14;;;;;;;12.68;3.65;;;;;;;;;;4880497;29;20120;-65
2022/10/28 10:11:43;;;;;;;13.05;4.18;;;;;;;;;;4878608;29;20081;-65
2022/10/28 10:14:11;;;;;;;12.68;3.63;;;;;;;;;;4879053;29;20446;-64
2022/10/28 10:16:52;;;;;;;8.60;3.42;;;;;;;;;;4880387;29;20308;-65
2022/10/28 10:19:19;;;;;;;13.82;3.97;;;;;;;;;;4880322;29;20093;-65
2022/10/28 10:21:45;;;;;;;10.90;3.47;;;;;;;;;;4879607;29;20065;-65
2022/10/28 10:24:21;;;;;;;13.07;3.03;;;;;;;;;;4880352;29;20192;-64
2022/10/28 10:26:48;;;;;;;6.32;2.25;;;;;;;;;;4879966;29;20045;-64
2022/10/28 10:29:14;;;;;;;8.40;2.85;;;;;;;;;;4880116;29;20116;-63
2022/10/28 10:31:40;;;;;;;10.23;3.47;;;;;;;;;;4879561;29;20044;-65
2022/10/28 10:34:22;;;;;;;11.35;3.22;;;;;;;;;;4880219;29;20061;-64
2022/10/28 10:36:49;;;;;;;9.05;3.45;;;;;;;;;;4880031;29;20045;-63
2022/10/28 10:39:21;;;;;;;9.18;3.28;;;;;;;;;;4878576;29;20053;-65
2022/10/28 10:41:47;;;;;;;9.02;3.25;;;;;;;;;;4863031;29;20101;-64
2022/10/28 10:44:20;;;;;;;12.75;2.80;;;;;;;;;;4880455;29;20045;-64
2022/10/28 10:46:46;;;;;;;10.83;2.70;;;;;;;;;;4878707;29;20045;-63
2022/10/28 10:49:14;;;;;;;8.50;2.42;;;;;;;;;;4879849;29;20041;-64
2022/10/28 10:51:49;;;;;;;7.55;2.90;;;;;;;;;;4879510;29;20502;-64
2022/10/28 10:54:16;;;;;;;11.55;2.45;;;;;;;;;;4880645;29;20049;-64
2022/10/28 10:56:42;;;;;;;9.77;2.72;;;;;;;;;;4879081;29;20049;-66
2022/10/28 10:59:28;;;;;;;12.25;2.70;;;;;;;;;;4879870;29;20379;-64
2022/10/28 11:01:56;;;;;;;11.88;2.92;;;;;;;;;;4879248;29;20093;-66
2022/10/28 11:04:25;;;;;;;12.68;2.97;;;;;;;;;;4879550;29;20068;-64
2022/10/28 11:06:53;;;;;;;7.28;2.60;;;;;;;;;;4879492;29;20104;-64
2022/10/28 11:09:31;;;;;;;10.15;3.28;;;;;;;;;;4878378;29;20085;-64
2022/10/28 11:11:58;;;;;;;9.90;2.70;;;;;;;;;;4878944;29;20085;-64
2022/10/28 11:14:30;;;;;;;7.55;2.63;;;;;;;;;;4878895;29;20097;-64
2022/10/28 11:16:57;;;;;;;8.90;2.70;;;;;;;;;;4879539;29;20052;-63
2022/10/28 11:19:28;;;;;;;9.40;2.67;;;;;;;;;;4879707;29;20049;-63
2022/10/28 11:22:00;;;;;;;9.27;2.60;;;;;;;;;;4878159;29;20053;-63
2022/10/28 11:24:39;;;;;;;12.63;2.38;;;;;;;;;;4879290;29;20037;-64
2022/10/28 11:27:05;;;;;;;10.55;2.80;;;;;;;;;;4879198;29;20041;-64
2022/10/28 11:29:32;;;;;;;9.60;3.25;;;;;;;;;;4878008;29;20061;-62
2022/10/28 11:32:10;;;;;;;14.00;3.97;;;;;;;;;;4878688;29;20037;-64
2022/10/28 11:34:46;;;;;;;10.70;3.42;;;;;;;;;;4878148;29;20041;-62
2022/10/28 11:37:21;;;;;;;12.45;3.28;;;;;;;;;;4878078;29;20057;-63
2022/10/28 11:40:06;;;;;;;10.95;2.88;;;;;;;;;;4879163;29;20049;-63
2022/10/28 11:42:38;;;;;;;9.75;3.38;;;;;;;;;;4878479;29;20048;-63
2022/10/28 11:45:11;;;;;;;9.98;3.53;;;;;;;;;;4877938;29;20053;-63
2022/10/28 11:48:03;;;;;;;14.15;3.65;;;;;;;;;;4878824;29;20097;-63
2022/10/28 11:50:29;;;;;;;11.20;3.42;;;;;;;;;;4878277;29;20049;-65
2022/10/28 11:53:19;;;;;;;8.23;2.65;;;;;;;;;;4878140;29;20110;-64
2022/10/28 11:55:52;;;;;;;8.95;3.22;;;;;;;;;;4878688;29;20097;-63
2022/10/28 11:58:22;;;;;;;12.45;2.88;;;;;;;;;;4878671;29;20410;-66
2022/10/28 12:01:09;;;;;;;7.82;2.67;;;;;;;;;;4878609;29;20101;-64
2022/10/28 12:03:54;;;;;;;9.77;2.90;;;;;;;;;;4867834;29;20387;-64
2022/10/28 12:06:21;;;;;;;9.27;2.70;;;;;;;;;;4877620;29;20065;-64
2022/10/28 12:09:10;;;;;;;16.95;3.22;;;;;;;;;;4878734;29;20486;-65
2022/10/28 12:11:43;;;;;;;11.75;2.80;;;;;;;;;;4878195;29;20057;-64
2022/10/28 12:14:21;;;;;;;6.68;3.58;;;;;;;;;;4878667;29;20494;-64
2022/10/28 12:16:47;;;;;;;6.57;2.70;;;;;;;;;;4878861;29;20113;-63
2022/10/28 12:19:20;;;;;;;6.72;3.05;;;;;;;;;;4877502;29;20081;-63
2022/10/28 12:22:05;;;;;;;12.70;2.80;;;;;;;;;;4877240;29;20463;-65
2022/10/28 12:24:34;;;;;;;8.25;2.53;;;;;;;;;;4878704;29;20053;-63
2022/10/28 12:27:04;;;;;;;8.85;2.70;;;;;;;;;;4878659;29;20402;-63
2022/10/28 12:29:39;;;;;;;11.38;3.30;;;;;;;;;;4878866;29;20041;-65
2022/10/28 12:32:07;;;;;;;11.65;2.72;;;;;;;;;;4878035;29;20067;-63
2022/10/28 12:34:41;;;;;;;7.88;3.05;;;;;;;;;;4881789;29;20049;-64
2022/10/28 12:37:11;;;;;;;7.30;2.83;;;;;;;;;;4883295;29;20108;-63
2022/10/28 12:39:39;;;;;;;8.07;2.90;;;;;;;;;;4882863;29;20513;-66
2022/10/28 12:42:20;;;;;;;12.55;2.97;;;;;;;;;;4881518;29;20387;-63
2022/10/28 12:44:47;;;;;;;9.13;2.97;;;;;;;;;;4882512;29;20101;-63
2022/10/28 12:47:25;;;;;;;10.40;3.08;;;;;;;;;;4881022;29;20087;-65
2022/10/28 12:50:06;;;;;;;9.38;2.95;;;;;;;;;;4882378;29;20101;-63
2022/10/28 12:52:43;;;;;;;11.88;3.35;;;;;;;;;;4881455;29;20045;-65
2022/10/28 12:55:13;;;;;;;12.73;3.97;;;;;;;;;;4880708;29;20056;-64
2022/10/28 12:57:42;;;;;;;12.98;3.33;;;;;;;;;;4881974;29;20045;-63
2022/10/28 13:00:11;;;;;;;10.90;2.63;;;;;;;;;;4881864;29;20049;-63
2022/10/28 13:02:42;;;;;;;12.13;3.22;;;;;;;;;;4881273;29;20045;-64
2022/10/28 13:05:17;;;;;;;7.28;2.90;;;;;;;;;;4881873;29;20738;-64
2022/10/28 13:07:51;;;;;;;12.38;2.92;;;;;;;;;;4880493;29;20570;-64
2022/10/28 13:10:39;;;;;;;9.85;3.10;;;;;;;;;;4880517;29;20114;-63
2022/10/28 13:13:05;;;;;;;11.80;3.42;;;;;;;;;;4881221;29;20105;-64
2022/10/28 13:15:50;;;;;;;14.93;3.50;;;;;;;;;;4881631;29;20049;-67
2022/10/28 13:18:35;;;;;;;10.05;2.83;;;;;;;;;;4880292;29;20514;-63
2022/10/28 13:21:20;;;;;;;12.48;3.03;;;;;;;;;;4881673;29;20041;-63
2022/10/28 13:23:53;;;;;;;8.55;3.13;;;;;;;;;;4879875;29;20056;-65
2022/10/28 13:26:26;;;;;;;12.85;3.40;;;;;;;;;;4881926;29;20049;-65
2022/10/28 13:28:55;;;;;;;9.90;3.05;;;;;;;;;;4881618;29;20502;-64
2022/10/28 13:31:22;;;;;;;11.65;3.75;;;;;;;;;;4880139;29;20413;-64
2022/10/28 13:33:56;;;;;;;7.85;2.58;;;;;;;;;;4881016;29;20052;-63
2022/10/28 13:36:27;;;;;;;9.07;3.15;;;;;;;;;;4880395;29;20053;-65
2022/10/28 13:38:58;;;;;;;15.27;2.78;;;;;;;;;;4881742;29;20057;-63
2022/10/28 13:41:35;;;;;;;12.45;3.45;;;;;;;;;;4881148;29;20080;-63
2022/10/28 13:44:08;;;;;;;11.38;3.30;;;;;;;;;;4881638;29;20162;-64
2022/10/28 13:46:53;;;;;;;12.20;3.13;;;;;;;;;;4879385;29;20049;-65
2022/10/28 13:49:23;;;;;;;11.70;3.42;;;;;;;;;;4880957;29;20761;-63
2022/10/28 13:51:50;;;;;;;15.35;3.97;;;;;;;;;;4880266;29;20059;-64
2022/10/28 13:54:24;;;;;;;13.35;3.10;;;;;;;;;;4880890;29;20038;-64
2022/10/28 13:56:51;;;;;;;9.07;3.03;;;;;;;;;;4881178;29;20045;-64
2022/10/28 13:59:22;;;;;;;11.23;2.80;;;;;;;;;;4881189;29;20052;-65
2022/10/28 14:01:53;;;;;;;10.23;2.70;;;;;;;;;;4878624;29;20053;-63
2022/10/28 14:04:40;;;;;;;12.18;3.60;;;;;;;;;;4879959;29;20044;-64
2022/10/28 14:07:09;;;;;;;11.10;3.05;;;;;;;;;;4864360;29;20049;-64
2022/10/28 14:09:37;;;;;;;11.90;2.83;;;;;;;;;;4880594;29;20097;-63
2022/10/28 14:12:16;;;;;;;8.23;3.35;;;;;;;;;;4880663;29;20089;-62
2022/10/28 14:14:50;;;;;;;11.70;3.35;;;;;;;;;;4881225;29;20105;-62
2022/10/28 14:17:21;;;;;;;11.43;3.45;;;;;;;;;;4880799;29;20055;-63
2022/10/28 14:19:49;;;;;;;12.10;3.30;;;;;;;;;;4880840;29;20553;-64
2022/10/28 14:22:25;;;;;;;10.60;3.03;;;;;;;;;;4880153;29;20083;-64
2022/10/28 14:24:52;;;;;;;13.75;3.42;;;;;;;;;;4881229;29;20088;-63
2022/10/28 14:27:25;;;;;;;13.43;2.88;;;;;;;;;;4879740;29;20041;-64
2022/10/28 14:29:54;;;;;;;8.35;3.08;;;;;;;;;;4880402;29;20044;-64
2022/10/28 14:32:30;;;;;;;14.48;4.20;;;;;;;;;;4878600;29;20093;-64
2022/10/28 14:35:09;;;;;;;11.32;3.33;;;;;;;;;;4880458;29;20072;-63
2022/10/28 14:37:38;;;;;;;9.07;3.55;;;;;;;;;;4880483;29;20049;-63
2022/10/28 14:40:12;;;;;;;11.45;3.33;;;;;;;;;;4878769;29;20049;-64
2022/10/28 14:42:47;;;;;;;10.30;4.10;;;;;;;;;;4877958;29;20543;-62
2022/10/28 14:45:22;;;;;;;11.75;2.90;;;;;;;;;;4879918;29;20065;-64
2022/10/28 14:48:01;;;;;;;8.48;3.20;;;;;;;;;;4879850;29;20045;-63
2022/10/28 14:50:38;;;;;;;13.93;4.18;;;;;;;;;;4878594;29;20129;-63
2022/10/28 14:53:06;;;;;;;10.02;4.00;;;;;;;;;;4879122;29;20037;-64